Time;durP1;ratioP1;P1;durP2;ratioP2;P2;SDS_P1;SDS_P2;PMS_P1;PMS_P2;Temp;Humidity;BMP_temperature;BMP_pressure;BME280_temperature;BME280_humidity;BME280_pressure;Samples;Min_cycle;Max_cycle;Signal;HPM_P1;HPM_P2
2022/11/03 00:01:15;;;;;;;2.05;0.70;;;;;;;21.70;32.41;100708.16;4536799;28;20127;-62
2022/11/03 00:03:26;;;;;;;1.77;0.68;;;;;;;21.70;32.51;100706.13;4535926;28;20044;-61
2022/11/03 00:08:06;;;;;;;1.95;0.60;;;;;;;21.66;32.38;100690.81;4534751;28;20736;-62
2022/11/03 00:10:16;;;;;;;1.52;0.70;;;;;;;21.69;33.11;100695.81;4534891;28;20032;-61
2022/11/03 00:12:26;;;;;;;1.45;0.60;;;;;;;21.69;32.50;100690.06;4534226;28;20155;-61
2022/11/03 00:14:37;;;;;;;1.63;0.60;;;;;;;21.69;32.59;100692.13;4534991;28;20124;-61
2022/11/03 00:16:47;;;;;;;0.90;0.60;;;;;;;21.69;32.66;100683.50;4535079;28;20042;-61
2022/11/03 00:18:58;;;;;;;1.25;0.50;;;;;;;21.68;32.48;100685.53;4534208;28;20033;-61
2022/11/03 00:21:10;;;;;;;1.30;0.60;;;;;;;21.68;32.64;100685.53;4533812;28;20044;-61
2022/11/03 00:23:21;;;;;;;1.60;0.60;;;;;;;21.68;32.58;100679.78;4535234;28;20032;-62
2022/11/03 00:25:31;;;;;;;1.42;0.50;;;;;;;21.66;32.65;100676.44;4536815;28;20401;-61
2022/11/03 00:27:41;;;;;;;1.10;0.50;;;;;;;21.65;32.94;100677.66;4535680;28;20037;-61
2022/11/03 00:29:52;;;;;;;1.17;0.70;;;;;;;21.67;32.86;100671.56;4536131;28;20017;-60
2022/11/03 00:32:02;;;;;;;1.02;0.40;;;;;;;21.67;33.11;100677.28;4534887;28;20040;-61
2022/11/03 00:34:13;;;;;;;2.08;0.60;;;;;;;21.65;33.04;100669.06;4535910;28;20102;-61
2022/11/03 00:36:32;;;;;;;1.45;0.60;;;;;;;21.66;33.06;100664.97;4533938;28;20017;-61
2022/11/03 00:38:43;;;;;;;1.58;0.50;;;;;;;21.65;33.04;100653.84;4539646;28;20039;-61
2022/11/03 00:40:55;;;;;;;1.30;0.50;;;;;;;21.65;33.04;100650.97;4532541;28;20245;-61
2022/11/03 00:43:05;;;;;;;1.65;0.50;;;;;;;21.65;33.21;100650.97;4536411;28;21312;-62
2022/11/03 00:45:16;;;;;;;1.02;0.45;;;;;;;21.65;32.89;100650.97;4534408;28;20041;-61
2022/11/03 00:47:26;;;;;;;1.42;0.60;;;;;;;21.62;32.87;100638.19;4536696;28;20057;-61
2022/11/03 00:49:37;;;;;;;1.58;0.68;;;;;;;21.64;33.31;100644.41;4537682;28;20287;-61
2022/11/03 00:51:47;;;;;;;1.05;0.60;;;;;;;21.64;33.06;100644.41;4536852;28;20905;-61
2022/11/03 00:53:59;;;;;;;1.73;0.60;;;;;;;21.63;33.21;100636.97;4536380;28;20033;-61
2022/11/03 00:56:13;;;;;;;1.42;0.60;;;;;;;21.61;33.05;100629.97;4535694;28;20115;-61
2022/11/03 00:58:23;;;;;;;0.88;0.60;;;;;;;21.63;33.28;100634.13;4535797;28;20584;-62
2022/11/03 01:00:33;;;;;;;0.95;0.68;;;;;;;21.62;32.87;100620.97;4535889;28;20580;-61
2022/11/03 01:02:44;;;;;;;1.02;0.60;;;;;;;21.62;32.99;100623.84;4535508;28;22825;-61
2022/11/03 01:07:23;;;;;;;0.90;0.50;;;;;;;21.62;33.04;100638.19;4535317;28;20021;-61
2022/11/03 01:09:36;;;;;;;2.35;0.70;;;;;;;21.61;33.20;100633.66;4535862;28;20078;-61
2022/11/03 01:12:14;;;;;;;1.88;0.70;;;;;;;21.61;33.64;100633.66;4536689;28;20115;-61
2022/11/03 01:14:40;;;;;;;1.05;0.52;;;;;;;21.60;33.84;100637.72;4535613;28;20041;-61
2022/11/03 01:16:51;;;;;;;1.65;0.60;;;;;;;21.60;34.04;100632.00;4537296;28;20044;-61
2022/11/03 01:19:02;;;;;;;0.87;0.60;;;;;;;21.61;34.06;100635.72;4535457;28;20491;-61
2022/11/03 01:21:12;;;;;;;0.95;0.50;;;;;;;21.59;33.92;100630.34;4535502;28;20146;-61
2022/11/03 01:23:23;;;;;;;1.48;0.70;;;;;;;21.61;33.77;100632.84;4535827;28;20037;-61
2022/11/03 01:25:34;;;;;;;1.98;0.70;;;;;;;21.59;33.55;100636.09;4535979;28;20385;-61
2022/11/03 01:27:45;;;;;;;1.10;0.52;;;;;;;21.57;33.73;100624.13;4536070;28;20041;-61
2022/11/03 01:29:55;;;;;;;1.17;0.60;;;;;;;21.60;33.93;100636.88;4535387;28;20036;-60
2022/11/03 01:32:07;;;;;;;0.70;0.40;;;;;;;21.60;33.77;100634.88;4536720;28;20033;-61
2022/11/03 01:34:20;;;;;;;1.15;0.52;;;;;;;21.58;33.62;100628.66;4535716;28;20128;-61
2022/11/03 01:36:30;;;;;;;0.77;0.55;;;;;;;21.57;33.64;100618.38;4535503;28;20040;-61
2022/11/03 01:38:41;;;;;;;0.50;0.50;;;;;;;21.58;33.72;100624.97;4535536;28;20693;-61
2022/11/03 01:40:51;;;;;;;1.73;0.60;;;;;;;21.56;33.47;100624.50;4534336;28;20144;-61
2022/11/03 01:43:23;;;;;;;0.80;0.55;;;;;;;21.56;33.46;100619.59;4534528;28;20025;-61
2022/11/03 01:45:33;;;;;;;1.10;0.68;;;;;;;21.57;33.52;100612.63;4538311;28;20044;-61
2022/11/03 01:47:45;;;;;;;0.85;0.55;;;;;;;21.56;33.63;100621.63;4539190;28;20579;-61
2022/11/03 01:50:07;;;;;;;1.17;0.60;;;;;;;21.56;33.33;100608.09;4538350;28;21239;-61
2022/11/03 01:52:29;;;;;;;0.88;0.50;;;;;;;21.56;33.55;100615.88;4538858;28;20068;-61
2022/11/03 01:54:42;;;;;;;1.60;0.60;;;;;;;21.51;33.20;100605.50;4539558;28;20059;-61
2022/11/03 01:56:53;;;;;;;1.20;0.63;;;;;;;21.56;33.49;100608.09;4537672;28;20028;-61
2022/11/03 01:59:04;;;;;;;1.35;0.60;;;;;;;21.54;33.31;100599.03;4538047;28;20587;-61
2022/11/03 02:01:14;;;;;;;0.90;0.50;;;;;;;21.54;33.56;100593.28;4538147;28;20092;-61
2022/11/03 02:03:27;;;;;;;1.15;0.60;;;;;;;21.55;33.59;100592.06;4537578;28;20029;-61
2022/11/03 02:05:40;;;;;;;1.13;0.43;;;;;;;21.54;33.29;100589.56;4538359;28;20036;-61
2022/11/03 02:07:56;;;;;;;1.55;0.70;;;;;;;21.54;33.50;100576.03;4537640;28;20080;-61
2022/11/03 02:10:08;;;;;;;1.52;0.65;;;;;;;21.52;33.60;100586.22;4537116;28;20051;-61
2022/11/03 02:12:20;;;;;;;0.70;0.50;;;;;;;21.53;33.58;100579.28;4538610;28;20565;-62
2022/11/03 02:14:31;;;;;;;1.27;0.73;;;;;;;21.54;33.59;100587.53;4538258;28;20118;-61
2022/11/03 02:16:46;;;;;;;2.03;0.68;;;;;;;21.54;33.64;100576.03;4538688;28;20044;-61
2022/11/03 02:18:59;;;;;;;0.70;0.50;;;;;;;21.52;33.68;100572.72;4537691;28;20108;-61
2022/11/03 02:21:46;;;;;;;0.95;0.57;;;;;;;21.53;33.64;100574.38;4537969;28;20049;-61
2022/11/03 02:24:02;;;;;;;0.85;0.50;;;;;;;21.53;33.75;100574.38;4537746;28;20065;-61
2022/11/03 02:26:14;;;;;;;1.20;0.60;;;;;;;21.51;33.60;100559.56;4539077;28;20033;-61
2022/11/03 02:28:28;;;;;;;0.98;0.50;;;;;;;21.51;33.59;100553.81;4538173;28;20114;-61
2022/11/03 02:30:45;;;;;;;1.00;0.52;;;;;;;21.53;33.73;100556.31;4539583;28;20092;-61
2022/11/03 02:33:17;;;;;;;1.02;0.60;;;;;;;21.50;33.46;100546.41;4537741;28;20040;-61
2022/11/03 02:35:41;;;;;;;1.02;0.50;;;;;;;21.52;33.63;100548.88;4524082;28;20186;-61
2022/11/03 02:37:58;;;;;;;1.42;0.60;;;;;;;21.51;33.76;100542.34;4537722;28;20048;-66
2022/11/03 02:40:13;;;;;;;1.48;0.60;;;;;;;21.50;33.87;100537.78;4536181;28;20045;-62
2022/11/03 02:42:25;;;;;;;1.60;0.75;;;;;;;21.50;33.80;100543.53;4538166;28;20848;-62
2022/11/03 02:44:37;;;;;;;1.33;0.70;;;;;;;21.50;33.75;100540.66;4537389;28;20132;-62
2022/11/03 02:46:53;;;;;;;1.25;0.63;;;;;;;21.50;34.06;100526.28;4537525;28;20021;-62
2022/11/03 02:49:04;;;;;;;1.25;0.52;;;;;;;21.49;33.80;100521.78;4538604;28;20539;-64
2022/11/03 02:51:14;;;;;;;1.52;0.60;;;;;;;21.49;34.11;100527.50;4539097;28;20043;-61
2022/11/03 02:53:27;;;;;;;1.52;0.70;;;;;;;21.49;34.50;100510.28;4537868;28;20037;-61
2022/11/03 02:55:40;;;;;;;1.13;0.70;;;;;;;21.47;34.00;100501.19;4536275;28;20043;-61
2022/11/03 02:58:04;;;;;;;1.75;0.80;;;;;;;21.49;34.44;100503.69;4539253;28;20540;-61
2022/11/03 03:00:16;;;;;;;1.10;0.57;;;;;;;21.48;34.00;100502.88;4537369;28;20052;-61
2022/11/03 03:02:35;;;;;;;1.48;0.60;;;;;;;21.47;34.32;100497.53;4537041;28;20040;-61
2022/11/03 03:04:53;;;;;;;1.20;0.57;;;;;;;21.48;33.94;100485.66;4538318;28;20076;-61
2022/11/03 03:07:07;;;;;;;1.30;0.60;;;;;;;21.47;34.20;100486.84;4536959;28;20036;-62
2022/11/03 03:09:23;;;;;;;1.95;0.80;;;;;;;21.47;34.17;100481.09;4536077;28;20021;-61
2022/11/03 03:11:37;;;;;;;1.58;0.70;;;;;;;21.48;34.10;100484.81;4536985;28;20104;-61
2022/11/03 03:13:47;;;;;;;1.52;0.73;;;;;;;21.47;34.16;100483.16;4538394;28;20040;-61
2022/11/03 03:16:01;;;;;;;1.95;0.80;;;;;;;21.47;34.36;100477.41;4539006;28;20033;-61
2022/11/03 03:18:26;;;;;;;1.88;0.70;;;;;;;21.45;34.64;100468.34;4536578;28;20141;-61
2022/11/03 03:20:45;;;;;;;1.77;0.70;;;;;;;21.46;34.49;100470.00;4537047;28;20041;-61
2022/11/03 03:22:59;;;;;;;1.25;0.60;;;;;;;21.47;34.78;100454.44;4524858;28;20037;-61
2022/11/03 03:25:17;;;;;;;1.70;0.70;;;;;;;21.44;34.84;100453.13;4537196;28;20136;-61
2022/11/03 03:27:32;;;;;;;1.38;0.50;;;;;;;21.42;35.27;100449.00;4521355;28;20033;-61
2022/11/03 03:30:00;;;;;;;1.10;0.60;;;;;;;21.46;35.49;100449.88;4540028;28;20047;-63
2022/11/03 03:32:15;;;;;;;1.95;0.68;;;;;;;21.45;36.01;100448.25;4524746;28;20073;-61
2022/11/03 03:34:27;;;;;;;2.35;0.80;;;;;;;21.43;36.14;100437.13;4536435;28;20128;-61
2022/11/03 03:36:39;;;;;;;1.67;0.60;;;;;;;21.44;36.77;100444.53;4538265;28;20122;-61
2022/11/03 03:38:55;;;;;;;2.95;0.80;;;;;;;21.44;36.62;100450.28;4537864;28;20484;-61
2022/11/03 03:41:09;;;;;;;1.37;0.70;;;;;;;21.44;37.04;100444.53;4536407;28;20722;-61
2022/11/03 03:43:22;;;;;;;1.30;0.60;;;;;;;21.44;37.22;100438.78;4538087;28;20335;-61
2022/11/03 03:45:35;;;;;;;1.08;0.55;;;;;;;21.43;37.33;100437.13;4536025;28;20048;-61
2022/11/03 03:47:46;;;;;;;1.70;0.70;;;;;;;21.44;37.28;100427.31;4536645;28;20088;-61
2022/11/03 03:49:57;;;;;;;2.30;0.93;;;;;;;21.43;37.42;100428.53;4536663;28;20056;-61
2022/11/03 03:52:08;;;;;;;1.23;0.70;;;;;;;21.43;37.52;100431.38;4536539;28;20112;-61
2022/11/03 03:54:19;;;;;;;3.33;1.25;;;;;;;21.42;37.42;100421.09;4537573;28;20037;-61
2022/11/03 03:56:36;;;;;;;1.98;0.60;;;;;;;21.44;37.48;100423.59;4535318;28;20044;-61
2022/11/03 03:58:47;;;;;;;1.83;0.70;;;;;;;21.43;37.08;100425.66;4533750;28;21211;-62
2022/11/03 04:00:57;;;;;;;0.95;0.60;;;;;;;21.43;37.09;100425.66;4536401;28;20049;-61
2022/11/03 04:03:17;;;;;;;1.77;0.70;;;;;;;21.42;37.04;100418.22;4537364;28;20104;-61
2022/11/03 04:05:28;;;;;;;0.70;0.65;;;;;;;21.43;36.96;100419.06;4536650;28;20057;-62
2022/11/03 04:07:47;;;;;;;1.63;0.70;;;;;;;21.41;37.14;100422.31;4537418;28;20143;-62
2022/11/03 04:09:58;;;;;;;1.35;0.70;;;;;;;21.41;37.09;100416.56;4525755;28;20041;-61
2022/11/03 04:22:17;;;;;;;1.52;0.70;;;;;;;21.41;37.11;100413.69;4536183;28;21042;-62
2022/11/03 04:24:27;;;;;;;1.30;0.60;;;;;;;21.39;37.09;100407.50;4537162;28;20107;-61
2022/11/03 04:26:39;;;;;;;0.80;0.60;;;;;;;21.40;36.91;100405.47;4536321;28;20028;-62
2022/11/03 04:28:51;;;;;;;1.33;0.70;;;;;;;21.39;37.31;100407.50;4538133;28;20022;-61
2022/11/03 04:31:01;;;;;;;2.35;0.80;;;;;;;21.38;37.24;100402.97;4537756;28;20039;-61
2022/11/03 04:33:17;;;;;;;2.20;0.60;;;;;;;21.39;37.08;100401.75;4535643;28;20052;-62
2022/11/03 04:35:27;;;;;;;1.88;0.70;;;;;;;21.40;36.84;100396.84;4534994;28;20032;-61
2022/11/03 04:37:38;;;;;;;1.27;0.50;;;;;;;21.38;36.84;100405.84;4536463;28;20028;-61
2022/11/03 04:39:48;;;;;;;1.38;0.65;;;;;;;21.38;36.07;100399.25;4536879;28;28564;-61
2022/11/03 04:41:59;;;;;;;1.08;0.50;;;;;;;21.38;35.99;100400.09;4535300;28;20030;-61
2022/11/03 04:44:14;;;;;;;1.48;0.70;;;;;;;21.37;36.03;100398.44;4535034;28;20106;-62
2022/11/03 04:46:27;;;;;;;0.77;0.50;;;;;;;21.38;36.56;100390.66;4536237;28;20199;-61
2022/11/03 04:48:37;;;;;;;1.15;0.65;;;;;;;21.37;36.26;100392.72;4535449;28;20013;-61
2022/11/03 04:50:52;;;;;;;1.45;0.70;;;;;;;21.37;36.61;100395.56;4537759;28;20037;-61
2022/11/03 04:53:10;;;;;;;1.50;0.50;;;;;;;21.27;36.43;100376.06;4536080;28;20586;-61
2022/11/03 04:55:20;;;;;;;1.55;0.70;;;;;;;21.36;36.49;100385.28;4536356;28;20048;-61
2022/11/03 04:57:31;;;;;;;1.25;0.70;;;;;;;21.35;36.36;100382.78;4536537;28;20039;-61
2022/11/03 04:59:44;;;;;;;1.75;0.60;;;;;;;21.36;36.32;100378.72;4534535;28;20155;-62
2022/11/03 05:01:55;;;;;;;1.58;0.60;;;;;;;21.35;36.52;100372.16;4536670;28;20658;-62
2022/11/03 05:04:12;;;;;;;0.95;0.57;;;;;;;21.35;36.95;100392.25;4535736;28;20041;-61
2022/11/03 05:06:26;;;;;;;1.70;0.77;;;;;;;21.35;36.64;100377.88;4535397;28;20552;-62
2022/11/03 05:08:37;;;;;;;1.40;0.70;;;;;;;21.34;36.97;100373.38;4536734;28;20039;-61
2022/11/03 05:10:48;;;;;;;1.02;0.55;;;;;;;21.34;36.74;100373.38;4536838;28;20032;-61
2022/11/03 05:12:59;;;;;;;1.52;0.70;;;;;;;21.35;36.71;100377.06;4534913;28;20672;-62
2022/11/03 05:15:27;;;;;;;0.95;0.60;;;;;;;21.34;36.39;100375.41;4536139;28;20819;-61
2022/11/03 05:17:37;;;;;;;0.95;0.57;;;;;;;21.34;36.70;100364.75;4535480;28;20032;-62
2022/11/03 05:19:51;;;;;;;1.83;0.75;;;;;;;21.32;36.30;100367.16;4537963;28;20080;-61
2022/11/03 05:22:03;;;;;;;1.98;0.60;;;;;;;21.33;36.34;100380.31;4538761;28;20033;-61
2022/11/03 05:24:14;;;;;;;2.05;0.80;;;;;;;21.32;36.32;100364.28;4536285;28;20055;-61
2022/11/03 05:26:29;;;;;;;1.75;0.60;;;;;;;21.33;36.18;100363.06;4538363;28;20512;-61
2022/11/03 05:28:43;;;;;;;1.73;0.80;;;;;;;21.33;36.01;100356.50;4537008;28;20021;-61
2022/11/03 05:30:54;;;;;;;2.10;0.73;;;;;;;21.32;36.12;100358.56;4537786;28;20033;-61
2022/11/03 05:33:17;;;;;;;2.67;0.70;;;;;;;21.33;36.25;100350.75;4537149;28;20490;-61
2022/11/03 05:35:27;;;;;;;1.30;0.70;;;;;;;21.31;36.46;100345.38;4538185;28;20095;-62
2022/11/03 05:37:38;;;;;;;2.38;0.95;;;;;;;21.31;36.32;100354.00;4539776;28;20116;-61
2022/11/03 05:39:49;;;;;;;1.75;1.27;;;;;;;21.31;36.25;100345.38;4539740;28;20048;-61
2022/11/03 05:42:01;;;;;;;1.60;0.88;;;;;;;21.30;36.27;100346.59;4539506;28;20041;-62
2022/11/03 05:44:30;;;;;;;1.90;0.90;;;;;;;21.30;36.23;100349.47;4537914;28;20141;-61
2022/11/03 05:46:40;;;;;;;1.92;0.88;;;;;;;21.29;36.93;100333.47;4538527;28;20142;-61
2022/11/03 05:48:50;;;;;;;1.60;0.80;;;;;;;21.29;36.85;100336.34;4538012;28;20106;-61
2022/11/03 05:51:20;;;;;;;1.45;0.75;;;;;;;21.29;36.78;100339.22;4537469;28;20643;-61
2022/11/03 05:53:38;;;;;;;1.52;0.80;;;;;;;21.30;36.51;100340.03;4538355;28;20088;-61
2022/11/03 05:55:48;;;;;;;1.10;0.60;;;;;;;21.28;36.77;100334.66;4538512;28;20029;-61
2022/11/03 05:58:29;;;;;;;1.88;0.77;;;;;;;21.28;36.63;100326.06;4539098;28;20041;-61
2022/11/03 06:00:41;;;;;;;1.75;0.85;;;;;;;21.29;36.71;100330.59;4539469;28;20133;-61
2022/11/03 06:02:51;;;;;;;2.05;0.80;;;;;;;21.29;36.54;100326.91;4526875;28;20025;-61
2022/11/03 06:05:20;;;;;;;0.98;0.80;;;;;;;21.28;36.61;100326.06;4539222;28;20037;-66
2022/11/03 06:07:31;;;;;;;2.00;0.77;;;;;;;21.29;36.75;100336.34;4538115;28;20037;-67
2022/11/03 06:09:42;;;;;;;1.48;0.65;;;;;;;21.27;36.40;100323.56;4539114;28;20069;-68
2022/11/03 06:11:56;;;;;;;1.73;0.75;;;;;;;21.28;36.84;100319.50;4537983;28;20652;-67
2022/11/03 06:14:24;;;;;;;2.10;0.80;;;;;;;21.24;36.70;100318.59;4541114;28;20564;-67
2022/11/03 06:16:40;;;;;;;2.05;1.00;;;;;;;21.27;36.68;100318.66;4538546;28;20041;-68
2022/11/03 06:18:50;;;;;;;1.13;0.80;;;;;;;21.27;36.80;100317.81;4539314;28;20040;-68
2022/11/03 06:21:15;;;;;;;2.15;0.77;;;;;;;21.27;37.04;100317.81;4525754;28;20676;-68
2022/11/03 06:23:25;;;;;;;2.28;0.80;;;;;;;21.27;36.70;100317.81;4538447;28;20033;-68
2022/11/03 06:25:37;;;;;;;1.25;0.80;;;;;;;21.26;36.91;100317.00;4538179;28;20037;-68
2022/11/03 06:27:48;;;;;;;1.85;0.70;;;;;;;21.27;36.79;100310.06;4537834;28;20513;-68
2022/11/03 06:30:02;;;;;;;1.27;0.70;;;;;;;21.26;36.24;100305.53;4537746;28;20032;-69
2022/11/03 06:32:13;;;;;;;2.40;1.00;;;;;;;21.26;36.43;100301.81;4537657;28;20029;-66
2022/11/03 06:34:23;;;;;;;1.60;0.80;;;;;;;21.26;36.61;100302.66;4537642;28;20029;-68
2022/11/03 06:36:36;;;;;;;2.47;0.80;;;;;;;21.26;36.70;100298.94;4538072;28;20060;-68
2022/11/03 06:38:51;;;;;;;2.28;0.80;;;;;;;21.26;36.63;100304.69;4535784;28;20124;-68
2022/11/03 06:41:01;;;;;;;2.65;1.10;;;;;;;21.26;36.32;100294.03;4537657;28;20036;-69
2022/11/03 06:43:19;;;;;;;1.88;0.80;;;;;;;21.27;36.51;100294.84;4536976;28;20037;-69
2022/11/03 06:45:30;;;;;;;2.05;0.90;;;;;;;21.28;36.78;100285.06;4538074;28;20033;-69
2022/11/03 06:47:40;;;;;;;0.77;0.70;;;;;;;21.24;36.49;100284.97;4536444;28;20025;-69
2022/11/03 06:49:54;;;;;;;1.77;0.85;;;;;;;21.24;36.13;100281.28;4536906;28;20120;-69
2022/11/03 06:52:30;;;;;;;1.83;0.93;;;;;;;21.25;36.30;100286.63;4536420;28;20119;-69
2022/11/03 06:54:41;;;;;;;2.25;0.70;;;;;;;21.26;36.04;100273.97;4536456;28;20180;-69
2022/11/03 06:56:51;;;;;;;1.55;0.80;;;;;;;21.26;36.61;100271.09;4536050;28;20033;-69
2022/11/03 06:59:02;;;;;;;1.77;0.90;;;;;;;21.27;36.11;100274.75;4535939;28;20033;-68
2022/11/03 07:01:20;;;;;;;2.08;0.88;;;;;;;21.26;36.60;100265.34;4538031;28;20052;-68
2022/11/03 07:03:34;;;;;;;2.22;1.00;;;;;;;21.26;36.12;100261.63;4537971;28;20036;-67
2022/11/03 07:05:44;;;;;;;1.80;0.80;;;;;;;21.26;36.19;100256.72;4537178;28;20288;-67
2022/11/03 07:07:59;;;;;;;1.83;0.80;;;;;;;21.27;36.32;100260.41;4536735;28;20029;-67
2022/11/03 07:10:09;;;;;;;1.05;0.80;;;;;;;21.26;36.49;100247.28;4538800;28;20136;-67
2022/11/03 07:12:20;;;;;;;1.92;0.80;;;;;;;21.26;36.41;100250.16;4536499;28;20031;-67
2022/11/03 07:14:32;;;;;;;1.67;0.70;;;;;;;21.26;36.86;100255.91;4536912;28;20055;-67
2022/11/03 07:16:47;;;;;;;2.08;0.90;;;;;;;21.25;37.01;100245.63;4535454;28;20128;-68
2022/11/03 07:19:04;;;;;;;1.75;0.82;;;;;;;21.25;37.03;100246.44;4535467;28;20044;-67
2022/11/03 07:21:33;;;;;;;1.40;0.63;;;;;;;21.24;36.76;100238.22;4536475;28;20045;-68
2022/11/03 07:23:43;;;;;;;1.58;0.80;;;;;;;21.24;37.04;100239.06;4539226;28;20040;-68
2022/11/03 07:25:58;;;;;;;1.98;0.63;;;;;;;21.26;36.84;100238.66;4536940;28;20047;-68
2022/11/03 07:28:09;;;;;;;2.40;0.77;;;;;;;21.25;37.56;100234.16;4537410;28;20034;-67
2022/11/03 07:30:33;;;;;;;1.17;0.63;;;;;;;21.25;37.36;100231.28;4537144;28;20037;-67
2022/11/03 07:32:44;;;;;;;1.65;0.80;;;;;;;21.24;37.70;100227.56;4537862;28;20060;-67
2022/11/03 07:35:04;;;;;;;1.92;0.82;;;;;;;21.24;37.71;100226.72;4536777;28;20033;-67
2022/11/03 07:37:19;;;;;;;2.30;0.90;;;;;;;21.24;37.76;100230.44;4524940;28;20041;-67
2022/11/03 07:39:36;;;;;;;1.55;0.70;;;;;;;21.24;38.05;100221.84;4536495;28;20097;-68
2022/11/03 07:41:46;;;;;;;1.42;0.70;;;;;;;21.24;37.65;100221.00;4534712;28;20067;-67
2022/11/03 07:43:59;;;;;;;2.13;0.88;;;;;;;21.23;37.72;100225.88;4537126;28;20124;-68
2022/11/03 07:46:15;;;;;;;1.63;0.82;;;;;;;21.23;37.67;100219.34;4523020;28;20675;-66
2022/11/03 07:48:33;;;;;;;2.22;0.60;;;;;;;21.23;37.92;100217.28;4536767;28;20076;-66
2022/11/03 07:50:44;;;;;;;1.52;0.63;;;;;;;21.23;37.84;100216.47;4536875;28;20609;-67
2022/11/03 07:52:55;;;;;;;1.50;0.80;;;;;;;21.22;37.75;100212.75;4536792;28;20053;-66
2022/11/03 07:55:10;;;;;;;1.38;0.70;;;;;;;21.22;38.43;100207.03;4535596;28;20635;-67
2022/11/03 07:57:25;;;;;;;1.63;0.70;;;;;;;21.23;38.45;100196.38;4535640;28;20175;-66
2022/11/03 07:59:42;;;;;;;1.10;0.60;;;;;;;21.23;38.47;100202.13;4534535;28;20095;-66
2022/11/03 08:01:55;;;;;;;1.60;0.90;;;;;;;21.21;38.63;100191.03;4536163;28;20556;-67
2022/11/03 08:04:09;;;;;;;1.60;0.63;;;;;;;21.20;38.47;100179.91;4537358;28;20039;-67
2022/11/03 08:06:19;;;;;;;1.27;0.63;;;;;;;21.22;38.23;100186.09;4536271;28;20127;-67
2022/11/03 08:08:29;;;;;;;2.60;0.80;;;;;;;21.22;38.13;100183.22;4536055;28;20033;-67
2022/11/03 08:10:40;;;;;;;2.15;0.93;;;;;;;21.22;39.69;100188.97;4536117;28;20481;-69
2022/11/03 08:12:50;;;;;;;1.40;0.68;;;;;;;21.22;38.96;100181.19;4535194;28;20651;-67
2022/11/03 08:15:00;;;;;;;1.17;0.57;;;;;;;21.22;38.87;100174.59;4535985;28;25147;-67
2022/11/03 08:17:11;;;;;;;1.92;0.70;;;;;;;21.21;38.96;100168.06;4536718;28;20037;-67
2022/11/03 08:19:22;;;;;;;1.13;0.60;;;;;;;21.21;38.77;100167.22;4537062;28;20095;-67
2022/11/03 08:21:32;;;;;;;2.20;0.77;;;;;;;21.21;39.44;100147.97;4537467;28;20039;-68
2022/11/03 08:23:43;;;;;;;2.10;0.90;;;;;;;21.21;39.17;100125.00;4536240;28;20032;-67
2022/11/03 08:25:53;;;;;;;1.58;0.80;;;;;;;21.21;39.66;100110.66;4538203;28;20044;-67
2022/11/03 08:28:04;;;;;;;1.40;0.60;;;;;;;21.18;39.75;100108.56;4535655;28;20040;-67
2022/11/03 08:30:15;;;;;;;1.98;0.77;;;;;;;21.20;39.52;100097.50;4536014;28;20044;-67
2022/11/03 08:32:25;;;;;;;1.90;0.73;;;;;;;21.20;39.39;100091.75;4534992;28;20453;-67
2022/11/03 08:34:36;;;;;;;1.63;0.80;;;;;;;21.20;38.73;100088.88;4536300;28;20132;-67
2022/11/03 08:36:46;;;;;;;1.83;0.70;;;;;;;21.19;38.79;100089.28;4536225;28;20040;-67
2022/11/03 08:38:56;;;;;;;2.25;0.70;;;;;;;21.19;38.54;100090.13;4534130;28;20067;-68
2022/11/03 08:41:07;;;;;;;2.08;0.70;;;;;;;21.19;38.42;100092.97;4536080;28;20040;-67
2022/11/03 08:43:17;;;;;;;2.53;0.60;;;;;;;21.20;38.06;100088.88;4536140;28;20041;-67
2022/11/03 08:45:28;;;;;;;1.33;0.63;;;;;;;21.19;38.39;100092.97;4534121;28;20029;-67
2022/11/03 08:47:39;;;;;;;1.75;0.80;;;;;;;21.20;38.40;100094.63;4534853;28;20099;-67
2022/11/03 08:49:49;;;;;;;1.15;0.80;;;;;;;21.18;38.47;100088.47;4534811;28;20103;-67
2022/11/03 08:52:00;;;;;;;2.00;0.98;;;;;;;21.19;38.22;100092.97;4535654;28;20033;-67
2022/11/03 08:54:10;;;;;;;1.63;0.85;;;;;;;21.19;38.24;100092.97;4535737;28;20037;-67
2022/11/03 08:56:21;;;;;;;1.33;0.70;;;;;;;21.19;37.77;100086.41;4534923;28;20060;-67
2022/11/03 08:58:31;;;;;;;1.95;0.93;;;;;;;21.18;38.08;100085.59;4535071;28;20029;-67
2022/11/03 09:00:42;;;;;;;1.40;0.80;;;;;;;21.19;37.89;100081.50;4535197;28;20195;-67
2022/11/03 09:02:52;;;;;;;1.67;0.85;;;;;;;21.19;37.94;100084.38;4535728;28;20405;-66
2022/11/03 09:05:04;;;;;;;1.30;0.82;;;;;;;21.17;38.03;100077.38;4535442;28;20044;-67
2022/11/03 09:07:15;;;;;;;2.88;1.00;;;;;;;21.19;37.86;100080.66;4536287;28;20975;-67
2022/11/03 09:09:25;;;;;;;1.52;0.73;;;;;;;21.19;38.06;100081.50;4533903;28;20037;-66
2022/11/03 09:11:35;;;;;;;1.13;0.60;;;;;;;21.19;38.09;100078.63;4535637;28;20037;-67
2022/11/03 09:13:46;;;;;;;1.45;0.70;;;;;;;21.19;37.70;100081.50;4535481;28;20095;-66
2022/11/03 09:15:56;;;;;;;1.45;0.73;;;;;;;21.17;37.69;100078.19;4535477;28;20552;-67
2022/11/03 09:18:07;;;;;;;1.50;0.90;;;;;;;21.18;38.10;100079.84;4534546;28;20348;-67
2022/11/03 09:20:17;;;;;;;1.67;0.80;;;;;;;21.18;38.18;100076.97;4533350;28;20044;-68
2022/11/03 09:22:28;;;;;;;2.00;0.90;;;;;;;21.18;38.42;100068.38;4538829;28;20317;-67
2022/11/03 09:24:38;;;;;;;1.73;0.90;;;;;;;21.17;38.57;100063.81;4514529;28;20044;-66
2022/11/03 09:26:48;;;;;;;1.90;0.90;;;;;;;21.18;38.86;100076.16;4537084;28;20036;-66
2022/11/03 09:28:59;;;;;;;1.42;0.90;;;;;;;21.16;38.84;100058.47;4535223;28;20044;-67
2022/11/03 09:31:09;;;;;;;1.63;0.85;;;;;;;21.18;38.69;100065.50;4535503;28;20033;-66
2022/11/03 09:33:20;;;;;;;1.98;0.75;;;;;;;21.17;38.38;100066.69;4536714;28;20147;-67
2022/11/03 09:35:30;;;;;;;1.80;0.80;;;;;;;21.17;38.25;100065.88;4528399;28;20060;-66
2022/11/03 09:37:40;;;;;;;1.42;0.85;;;;;;;21.18;38.43;100054.03;4534728;28;20215;-66
2022/11/03 09:39:51;;;;;;;1.90;0.70;;;;;;;21.17;38.59;100055.22;4533443;28;20071;-67
2022/11/03 09:42:03;;;;;;;1.85;0.80;;;;;;;21.18;38.47;100053.19;4514733;28;20139;-67
2022/11/03 09:44:14;;;;;;;1.10;0.60;;;;;;;21.18;38.40;100050.31;4521908;28;20552;-67
2022/11/03 09:46:27;;;;;;;2.03;0.70;;;;;;;21.18;38.73;100044.56;4516678;28;20020;-67
2022/11/03 09:48:38;;;;;;;1.77;0.70;;;;;;;21.17;38.77;100032.25;4526321;28;20460;-68
2022/11/03 09:50:52;;;;;;;1.42;0.68;;;;;;;21.17;38.30;100029.38;4505879;28;20657;-67
2022/11/03 09:53:03;;;;;;;1.70;0.75;;;;;;;21.17;38.22;100031.44;4521289;28;20029;-67
2022/11/03 09:55:16;;;;;;;1.48;0.82;;;;;;;21.16;38.54;100027.75;4524281;28;20053;-68
2022/11/03 09:57:27;;;;;;;1.13;0.60;;;;;;;21.18;38.04;100033.09;4537060;28;20115;-67
2022/11/03 09:59:46;;;;;;;1.27;0.60;;;;;;;21.16;37.98;100022.00;4535076;28;20037;-67
2022/11/03 10:01:56;;;;;;;0.88;0.60;;;;;;;21.18;38.27;100033.09;4533978;28;21788;-68
2022/11/03 10:04:10;;;;;;;1.67;0.63;;;;;;;21.17;37.91;100020.78;4535397;28;20028;-66
2022/11/03 10:06:20;;;;;;;2.17;0.80;;;;;;;21.18;37.79;100031.06;4539428;28;20033;-68
2022/11/03 10:08:34;;;;;;;1.45;0.70;;;;;;;21.16;38.48;100026.91;4539542;28;20390;-67
2022/11/03 10:10:44;;;;;;;1.15;0.60;;;;;;;21.17;38.25;100017.91;4538483;28;20029;-68
2022/11/03 10:12:55;;;;;;;0.73;0.60;;;;;;;21.17;38.06;100009.31;4538802;28;20590;-68
2022/11/03 10:15:13;;;;;;;1.00;0.50;;;;;;;21.15;38.04;100003.13;4537736;28;20029;-68
2022/11/03 10:17:28;;;;;;;1.85;0.70;;;;;;;21.19;38.15;100006.03;4539686;28;20620;-70
2022/11/03 10:19:38;;;;;;;1.85;0.60;;;;;;;21.17;38.29;99994.94;4536039;28;20666;-69
2022/11/03 10:21:50;;;;;;;1.17;0.60;;;;;;;21.17;38.88;99994.94;4538356;28;21402;-68
2022/11/03 10:24:00;;;;;;;1.38;0.50;;;;;;;21.17;38.95;99991.28;4536698;28;20099;-68
2022/11/03 10:26:15;;;;;;;1.35;0.60;;;;;;;21.17;38.55;99980.59;4538260;28;20044;-67
2022/11/03 10:28:25;;;;;;;1.58;0.75;;;;;;;21.16;38.75;99978.97;4537520;28;20033;-68
2022/11/03 10:30:49;;;;;;;1.33;0.52;;;;;;;21.15;38.63;99974.44;4538137;28;20472;-68
2022/11/03 10:32:59;;;;;;;1.58;0.68;;;;;;;21.17;38.71;99969.13;4536585;28;20033;-67
2022/11/03 10:35:32;;;;;;;1.00;0.60;;;;;;;21.17;38.59;99963.38;4538097;28;20037;-68